Terminal Aerodrome Forecast
Issued by NWS

Home | Current Version | Previous Version | Text Only | Print | Product List | Glossary On
Versions: 1 2 3 4 5 6 7 8 9 10 11 12 13 14 15 16 17 18 19 20
951
FTUS43 KDLH 210914 AAA
TAFHYR
TAF AMD
KHYR 210914Z 2109/2206 21008KT P6SM VCTS BKN015 OVC025CB
      TEMPO 2109/2111 VRB30G50KT 1SM -TSRA BR BKN008 OVC015CB
     FM211300 21005KT P6SM VCSH SCT025 BKN050
     FM220000 VRB04KT P6SM VCTS SCT025 BKN050CB=

USA.gov is the U.S. government's official web portal to all federal, state and local government web resources and services.